RJNH(METAR)
06/27 01:00
METAR RJNH 261600Z 17002KT 9999 FEW015 BKN020 BKN035 23/20 Q1012 RMK
1CU015 5CU020 7SC035 A2991=
戻る
トップページへ戻る
IMOC Co,.Ltd.